VLVT/VTE METAR and TAF weather

Enter ICAO airport designator
Station Type Date Time Source
VLVT METAR 2019/10/14 06:30 UTC NOAA

VLVT 140630Z 14004KT 9999 SCT020 33/20 Q1013 NOSIG


Station Type Date Time Source
VLVT Decoded METAR 2019/10/14 06:30 UTC NOAA

Vientiane, Laos (VLVT) 17-57N 102-34E 171M
Oct 14, 2019 - 02:30 AM EDT / 2019.10.14 0630 UTC
Wind: from the SE (140 degrees) at 5 MPH (4 KT):0
Visibility: greater than 7 mile(s):0
Sky conditions: partly cloudy
Temperature: 91 F (33 C)
Heat index: 94.6 F (34.8 C):1
Dew Point: 68 F (20 C)
Relative Humidity: 46%
Pressure (altimeter): 29.91 in. Hg (1013 hPa)
ob: VLVT 140630Z 14004KT 9999 SCT020 33/20 Q1013 NOSIG
cycle: 6

Station Type Date Time Source
VLVT TAF 2019/10/14 06:39 UTC NOAA

TAF TAF VLVT 140500Z 1406/1506 09006KT 9999 SCT020 FEW050

Example: see airport list